Empire State — WDE4431 — position and weather

sailwx.info

Track history (hours):
 
Tides and Currents Weather Stations Pressure Air Temp Water Temp Dewpoint Dewpoint Depression Visibility Wind Speed Wind Dir Waves Ship Positions

Empire State

Owner: Crowley Petroleum Services, Jacksonville, FL. More information available from US FCC via Universal Licensing System and Coast Guard Vessel Documentation Center.

Last reported at 2015-Jun-26 01:32 UTC. Time now 2015-Jun-29 23:12 UTC.
Position N 45°34' W 122°44'.

Length 183 m; draft 7.5 m.

Type: Military. MMSI: 367353080.

Date/timePositionNaut miles runAvg speedWind from/ knotsBaromVisibWave heightAir tempDewpointWater temp
2015-Jun-26 01:32N 45°34' W 122°44'0 0.3
2015-Jun-26 00:32N 45°34' W 122°43'0 0.0
2015-Jun-25 23:29N 45°34' W 122°43'0 0.0
2015-Jun-25 22:14N 45°34' W 122°43'0 0.0
2015-Jun-25 21:26N 45°34' W 122°43'0 0.0
2015-Jun-25 20:29N 45°34' W 122°43'0 0.0
2015-Jun-25 19:29N 45°34' W 122°43'0 0.0
2015-Jun-25 18:32N 45°34' W 122°43'0 0.0
2015-Jun-25 17:29N 45°34' W 122°43'0 0.0
2015-Jun-25 16:17N 45°34' W 122°43'0 0.0
2015-Jun-25 15:32N 45°34' W 122°43'0 0.0
2015-Jun-25 14:32N 45°34' W 122°43'0 0.0
2015-Jun-25 13:29N 45°34' W 122°43'0 0.0
2015-Jun-25 11:29N 45°34' W 122°43'0 0.0
2015-Jun-25 10:32N 45°34' W 122°43'0 0.0
2015-Jun-25 09:23N 45°34' W 122°43'0 0.0
2015-Jun-25 08:32N 45°34' W 122°43'0 0.0
2015-Jun-25 07:29N 45°34' W 122°43'0 0.0
2015-Jun-25 06:29N 45°34' W 122°43'0 0.0
2015-Jun-25 05:32N 45°34' W 122°43'0 0.0
2015-Jun-25 04:29N 45°34' W 122°43'0 0.0
2015-Jun-25 03:32N 45°34' W 122°43'0 0.0
2015-Jun-25 02:32N 45°34' W 122°43'0 0.0
2015-Jun-25 01:29N 45°34' W 122°43'0 0.0
2015-Jun-25 00:26N 45°34' W 122°43'0 0.0
2015-Jun-24 23:32N 45°34' W 122°43'0 0.0
2015-Jun-24 22:23N 45°34' W 122°43'0 0.0
2015-Jun-24 21:29N 45°34' W 122°43'0 0.0
2015-Jun-24 20:32N 45°34' W 122°43'0 0.0
2015-Jun-24 19:26N 45°34' W 122°43'0 0.0
2015-Jun-24 18:29N 45°34' W 122°43'0 0.0
2015-Jun-24 17:32N 45°34' W 122°43'0 0.0
2015-Jun-24 16:32N 45°34' W 122°43'0 0.0
2015-Jun-24 15:29N 45°34' W 122°43'0 0.0
2015-Jun-24 14:29N 45°34' W 122°43'0 0.0
2015-Jun-24 13:32N 45°34' W 122°43'0 0.0
2015-Jun-24 12:32N 45°34' W 122°43'0 0.0
2015-Jun-24 11:32N 45°34' W 122°43'0 0.0
2015-Jun-24 10:29N 45°34' W 122°43'0 0.0
2015-Jun-24 09:32N 45°34' W 122°43'0 0.0
2015-Jun-24 08:29N 45°34' W 122°43'0 0.0
2015-Jun-24 07:32N 45°34' W 122°43'0 0.0
2015-Jun-24 06:29N 45°34' W 122°43'0 0.0
2015-Jun-24 05:32N 45°34' W 122°43'0 0.0
2015-Jun-24 04:26N 45°34' W 122°43'0 0.0
2015-Jun-24 03:17N 45°34' W 122°43'0 0.0
2015-Jun-24 02:32N 45°34' W 122°43'0 0.0
2015-Jun-24 01:32N 45°34' W 122°43'0 0.0
2015-Jun-24 00:29N 45°34' W 122°43'0 0.0
2015-Jun-23 23:17N 45°34' W 122°43'0 0.0
2015-Jun-23 22:23N 45°34' W 122°43'0 0.0
2015-Jun-23 21:32N 45°34' W 122°43'0 0.0
2015-Jun-23 20:29N 45°34' W 122°43'0 0.0
2015-Jun-23 19:26N 45°34' W 122°43'0 0.0
2015-Jun-23 19:02N 45°34' W 122°43'58 2.5
2015-Jun-22 19:33N 46°15' W 123°41'9 9.1
2015-Jun-22 18:34N 46°11' W 123°54'8 8.1
2015-Jun-22 17:33N 46°15' W 124°04'1111.3
2015-Jun-22 16:33N 46°09' W 124°17'10 9.6
2015-Jun-22 15:33N 46°02' W 124°27'10 9.7
2015-Jun-22 14:33N 45°56' W 124°39'10 9.5
2015-Jun-22 13:33N 45°50' W 124°49'8 8.0
2015-Jun-22 12:33N 45°43' W 124°55'18 9.0
2015-Jun-22 10:31N 45°32' W 125°15'9 8.9
2015-Jun-22 09:33N 45°26' W 125°24'9 8.9
2015-Jun-22 08:33N 45°20' W 125°34'9 9.1
2015-Jun-22 07:33N 45°14' W 125°44'9 8.8
2015-Jun-22 06:33N 45°09' W 125°53'10 8.8
2015-Jun-22 05:27N 45°02' W 126°04'8 8.9
2015-Jun-22 04:33N 44°57' W 126°12'12 9.0
2015-Jun-22 03:10N 44°49' W 126°25'6 8.1
2015-Jun-22 02:25N 44°45' W 126°32'7 7.8
2015-Jun-22 01:30N 44°40' W 126°39'  
Track history (hours):
 
Tides and Currents Weather Stations Pressure Air Temp Water Temp Dewpoint Dewpoint Depression Visibility Wind Speed Wind Dir Waves Ship Positions

Empire State

Owner: Crowley Petroleum Services, Jacksonville, FL. More information available from US FCC via Universal Licensing System and Coast Guard Vessel Documentation Center.

Last reported at 2015-Jun-26 01:32 UTC. Time now 2015-Jun-29 23:12 UTC.
Position N 45°34' W 122°44'.

Length 183 m; draft 7.5 m.

Type: Military. MMSI: 367353080.

Date/timePositionNaut miles runAvg speedWind from/ knotsBaromVisibWave heightAir tempDewpointWater temp
2015-Jun-26 01:32N 45°34' W 122°44'0 0.3
2015-Jun-26 00:32N 45°34' W 122°43'0 0.0
2015-Jun-25 23:29N 45°34' W 122°43'0 0.0
2015-Jun-25 22:14N 45°34' W 122°43'0 0.0
2015-Jun-25 21:26N 45°34' W 122°43'0 0.0
2015-Jun-25 20:29N 45°34' W 122°43'0 0.0
2015-Jun-25 19:29N 45°34' W 122°43'0 0.0
2015-Jun-25 18:32N 45°34' W 122°43'0 0.0
2015-Jun-25 17:29N 45°34' W 122°43'0 0.0
2015-Jun-25 16:17N 45°34' W 122°43'0 0.0
2015-Jun-25 15:32N 45°34' W 122°43'0 0.0
2015-Jun-25 14:32N 45°34' W 122°43'0 0.0
2015-Jun-25 13:29N 45°34' W 122°43'0 0.0
2015-Jun-25 11:29N 45°34' W 122°43'0 0.0
2015-Jun-25 10:32N 45°34' W 122°43'0 0.0
2015-Jun-25 09:23N 45°34' W 122°43'0 0.0
2015-Jun-25 08:32N 45°34' W 122°43'0 0.0
2015-Jun-25 07:29N 45°34' W 122°43'0 0.0
2015-Jun-25 06:29N 45°34' W 122°43'0 0.0
2015-Jun-25 05:32N 45°34' W 122°43'0 0.0
2015-Jun-25 04:29N 45°34' W 122°43'0 0.0
2015-Jun-25 03:32N 45°34' W 122°43'0 0.0
2015-Jun-25 02:32N 45°34' W 122°43'0 0.0
2015-Jun-25 01:29N 45°34' W 122°43'0 0.0
2015-Jun-25 00:26N 45°34' W 122°43'0 0.0
2015-Jun-24 23:32N 45°34' W 122°43'0 0.0
2015-Jun-24 22:23N 45°34' W 122°43'0 0.0
2015-Jun-24 21:29N 45°34' W 122°43'0 0.0
2015-Jun-24 20:32N 45°34' W 122°43'0 0.0
2015-Jun-24 19:26N 45°34' W 122°43'0 0.0
2015-Jun-24 18:29N 45°34' W 122°43'0 0.0
2015-Jun-24 17:32N 45°34' W 122°43'0 0.0
2015-Jun-24 16:32N 45°34' W 122°43'0 0.0
2015-Jun-24 15:29N 45°34' W 122°43'0 0.0
2015-Jun-24 14:29N 45°34' W 122°43'0 0.0
2015-Jun-24 13:32N 45°34' W 122°43'0 0.0
2015-Jun-24 12:32N 45°34' W 122°43'0 0.0
2015-Jun-24 11:32N 45°34' W 122°43'0 0.0
2015-Jun-24 10:29N 45°34' W 122°43'0 0.0
2015-Jun-24 09:32N 45°34' W 122°43'0 0.0
2015-Jun-24 08:29N 45°34' W 122°43'0 0.0
2015-Jun-24 07:32N 45°34' W 122°43'0 0.0
2015-Jun-24 06:29N 45°34' W 122°43'0 0.0
2015-Jun-24 05:32N 45°34' W 122°43'0 0.0
2015-Jun-24 04:26N 45°34' W 122°43'0 0.0
2015-Jun-24 03:17N 45°34' W 122°43'0 0.0
2015-Jun-24 02:32N 45°34' W 122°43'0 0.0
2015-Jun-24 01:32N 45°34' W 122°43'0 0.0
2015-Jun-24 00:29N 45°34' W 122°43'0 0.0
2015-Jun-23 23:17N 45°34' W 122°43'0 0.0
2015-Jun-23 22:23N 45°34' W 122°43'0 0.0
2015-Jun-23 21:32N 45°34' W 122°43'0 0.0
2015-Jun-23 20:29N 45°34' W 122°43'0 0.0
2015-Jun-23 19:26N 45°34' W 122°43'0 0.0
2015-Jun-23 19:02N 45°34' W 122°43'58 2.5
2015-Jun-22 19:33N 46°15' W 123°41'9 9.1
2015-Jun-22 18:34N 46°11' W 123°54'8 8.1
2015-Jun-22 17:33N 46°15' W 124°04'1111.3
2015-Jun-22 16:33N 46°09' W 124°17'10 9.6
2015-Jun-22 15:33N 46°02' W 124°27'10 9.7
2015-Jun-22 14:33N 45°56' W 124°39'10 9.5
2015-Jun-22 13:33N 45°50' W 124°49'8 8.0
2015-Jun-22 12:33N 45°43' W 124°55'18 9.0
2015-Jun-22 10:31N 45°32' W 125°15'9 8.9
2015-Jun-22 09:33N 45°26' W 125°24'9 8.9
2015-Jun-22 08:33N 45°20' W 125°34'9 9.1
2015-Jun-22 07:33N 45°14' W 125°44'9 8.8
2015-Jun-22 06:33N 45°09' W 125°53'10 8.8
2015-Jun-22 05:27N 45°02' W 126°04'8 8.9
2015-Jun-22 04:33N 44°57' W 126°12'12 9.0
2015-Jun-22 03:10N 44°49' W 126°25'6 8.1
2015-Jun-22 02:25N 44°45' W 126°32'7 7.8
2015-Jun-22 01:30N 44°40' W 126°39'  

Dump ship's entire track history